Latest Weather Observations for Redcliffe

IDQ60901

Issued at 1:21 pm EST Saturday 30 July 2016 (issued every 10 minutes, with the page automatically refreshed every 10 minutes)

About weather observations | Map of Brisbane area stations | Latest observations for Brisbane area | Other Formats
Station Details ID: 040958 Name: REDCLIFFE Lat: -27.22 Lon: 153.09 Height: 12.6 m
Data from the previous 72 hours. | See also: Recent months at Redcliffe
Date/Time
EST
Temp
°C
App
Temp
°C
Dew
Point
°C
Rel
Hum
%
Delta-T
°C
Wind Press
QNH
hPa
Press
MSL
hPa
Rain since
9am
mm
Dir  Spd
km/h
Gust
km/h
Spd
kts
Gust
kts
30/01:00pm 19.8 16.9 6.5 42 6.7 SE 11 13 6 7 1018.9 1018.9 0.0
30/12:30pm 19.1 16.6 8.1 49 5.7 ESE 11 13 6 7 1019.3 1019.3 0.0
30/12:00pm 18.5 15.8 9.0 54 4.9 SE 13 15 7 8 1019.9 1019.9 0.0
30/11:30am 18.0 15.3 8.8 55 4.8 SE 13 15 7 8 1020.3 1020.3 0.0
30/11:00am 20.1 17.2 8.1 46 6.2 SE 13 15 7 8 1020.7 1020.7 0.0
30/10:30am 19.3 16.2 7.1 45 6.2 SSE 13 15 7 8 1021.0 1021.0 0.0
30/10:00am 18.3 16.7 8.6 53 5.0 NNW 7 9 4 5 1021.0 1021.0 0.0
30/09:30am 17.4 15.0 8.8 57 4.4 WNW 11 13 6 7 1021.3 1021.3 0.0
30/09:00am 16.6 13.7 8.1 57 4.3 WNW 13 15 7 8 1021.3 1021.3 0.0
30/08:30am 14.7 12.9 9.5 71 2.7 NNW 9 11 5 6 1021.4 1021.4 0.0
30/08:00am 13.4 11.8 8.7 73 2.4 WNW 7 9 4 5 1021.2 1021.2 0.0
30/07:30am 11.5 - 7.6 77 1.9 - - - - - 1020.9 1020.9 0.0
30/07:00am 10.1 - 7.3 83 1.3 - - - - - 1020.6 1020.6 0.0
30/06:30am 9.6 - 7.2 85 1.1 - - - - - 1020.4 1020.4 0.0
30/06:00am 9.7 7.4 7.6 87 1.0 WSW 9 11 5 6 1020.0 1020.0 0.0
30/05:30am 10.0 9.6 8.1 88 0.9 CALM 0 0 0 0 1019.8 1019.8 0.0
30/05:00am 10.0 7.9 8.3 89 0.8 W 9 13 5 7 1019.7 1019.7 0.0
30/04:30am 10.5 8.9 8.6 88 0.9 WSW 7 9 4 5 1019.4 1019.4 0.0
30/04:00am 11.0 9.4 8.9 87 1.0 W 7 9 4 5 1019.4 1019.4 0.0
30/03:30am 11.1 8.7 8.8 86 1.1 W 11 13 6 7 1019.5 1019.5 0.0
30/03:00am 11.6 9.5 9.7 88 1.0 NW 11 13 6 7 1019.6 1019.6 0.0
30/02:30am 12.0 9.9 9.6 85 1.2 NW 11 13 6 7 1019.9 1019.9 0.0
30/02:00am 12.2 10.3 9.0 81 1.6 WNW 9 13 5 7 1019.9 1019.9 0.0
30/01:30am 12.7 10.4 9.0 78 1.9 WNW 11 13 6 7 1020.2 1020.2 0.0
30/01:00am 12.9 10.7 9.4 79 1.8 WNW 11 13 6 7 1020.5 1020.5 0.0
30/12:30am 13.0 10.4 9.3 78 1.9 NW 13 17 7 9 1020.7 1020.7 0.0
30/12:00am 13.5 11.3 9.4 76 2.1 WNW 11 15 6 8 1020.8 1020.8 0.0
 
Date/Time
EST
Temp
°C
App
Temp
°C
Dew
Point
°C
Rel
Hum
%
Delta-T
°C
Wind Press
QNH
hPa
Press
MSL
hPa
Rain since
9am
mm
Dir  Spd
km/h
Gust
km/h
Spd
kts
Gust
kts
29/11:30pm 13.9 11.8 9.7 76 2.2 WNW 11 15 6 8 1020.9 1020.9 0.0
29/11:00pm 13.9 12.3 10.1 78 2.0 NW 9 11 5 6 1021.0 1021.0 0.0
29/10:30pm 13.7 11.2 9.7 77 2.1 WNW 13 15 7 8 1021.1 1021.1 0.0
29/10:00pm 14.0 11.5 9.6 75 2.3 WNW 13 17 7 9 1021.0 1021.0 0.0
29/09:30pm 14.4 12.3 9.8 74 2.4 NW 11 15 6 8 1021.1 1021.1 0.0
29/09:00pm 14.9 12.9 10.1 73 2.5 WNW 11 15 6 8 1021.1 1021.1 0.0
29/08:30pm 15.4 13.6 10.8 74 2.4 WNW 11 13 6 7 1021.0 1021.0 0.0
29/08:00pm 15.6 14.2 11.0 74 2.4 WNW 9 11 5 6 1020.9 1020.9 0.0
29/07:30pm 16.0 14.9 11.8 76 2.3 NW 9 11 5 6 1020.7 1020.7 0.0
29/07:00pm 16.9 16.0 12.6 76 2.4 NNW 9 11 5 6 1020.5 1020.5 0.0
29/06:30pm 17.7 16.2 11.9 69 3.2 N 11 13 6 7 1020.2 1020.2 0.0
29/06:00pm 18.2 15.7 11.0 63 3.9 N 15 17 8 9 1019.9 1019.9 0.0
29/05:30pm 18.6 15.5 10.2 58 4.5 NNE 17 19 9 10 1019.7 1019.7 0.0
29/05:00pm 19.3 15.8 8.9 51 5.4 NNE 17 19 9 10 1019.6 1019.6 0.0
29/04:30pm 19.8 16.8 7.9 46 6.1 NNE 13 15 7 8 1019.6 1019.6 0.0
29/04:00pm 20.0 17.1 8.0 46 6.2 NE 13 15 7 8 1019.5 1019.5 0.0
29/03:30pm 20.2 17.4 8.5 47 6.1 ENE 13 13 7 7 1019.6 1019.6 0.0
29/03:00pm 20.3 17.4 8.3 46 6.2 ENE 13 15 7 8 1019.6 1019.6 0.0
29/02:30pm 20.6 17.8 8.6 46 6.3 E 13 15 7 8 1019.8 1019.8 0.0
29/02:00pm 20.6 17.9 8.9 47 6.2 ENE 13 15 7 8 1020.2 1020.2 0.0
29/01:30pm 20.9 18.1 8.5 45 6.5 ENE 13 13 7 7 1020.6 1020.6 0.0
29/01:00pm 20.4 17.4 7.7 44 6.5 ENE 13 15 7 8 1020.8 1020.8 0.0
29/12:30pm 20.4 17.8 7.7 44 6.5 ENE 11 11 6 6 1021.3 1021.3 0.0
29/12:00pm 20.1 18.0 8.4 47 6.1 ENE 9 11 5 6 1021.9 1021.9 0.0
29/11:30am 19.5 17.7 9.4 52 5.3 ENE 9 11 5 6 1022.5 1022.5 0.0
29/11:00am 19.1 16.9 9.3 53 5.1 ESE 11 13 6 7 1023.0 1023.0 0.0
29/10:30am 19.4 17.5 11.9 62 4.2 SE 13 15 7 8 1023.3 1023.3 0.0
29/10:00am 19.1 16.3 8.4 50 5.5 SSE 13 15 7 8 1023.6 1023.6 0.0
29/09:30am 17.9 16.2 9.8 59 4.3 S 9 11 5 6 1023.7 1023.7 0.0
29/09:00am 15.9 14.4 9.3 65 3.4 WSW 7 9 4 5 1023.8 1023.8 0.0
29/08:30am 14.4 12.1 9.0 70 2.7 WSW 11 15 6 8 1023.6 1023.6 0.0
29/08:00am 12.8 10.0 8.7 76 2.0 WSW 13 15 7 8 1023.5 1023.5 0.0
29/07:30am 11.1 8.1 7.8 80 1.6 WSW 13 15 7 8 1023.4 1023.4 0.0
29/07:00am 10.5 - 8.1 85 1.2 - - - - - 1023.4 1023.4 0.0
29/06:30am 10.2 8.0 7.8 85 1.2 SW 9 13 5 7 1023.3 1023.3 0.0
29/06:00am 10.4 8.8 8.0 85 1.2 SW 6 7 3 4 1023.0 1023.0 0.0
29/05:30am 10.8 8.6 8.0 83 1.4 SW 9 11 5 6 1022.6 1022.6 0.0
29/05:00am 11.1 9.0 8.3 83 1.4 SW 9 9 5 5 1022.4 1022.4 0.0
29/04:30am 11.5 8.8 8.9 84 1.3 SSW 13 15 7 8 1022.2 1022.2 0.0
29/04:00am 11.2 9.2 8.6 84 1.3 SSW 9 11 5 6 1022.1 1022.1 0.0
29/03:30am 10.9 8.8 8.3 84 1.3 SSW 9 13 5 7 1022.1 1022.1 0.0
29/03:00am 11.2 7.9 8.2 82 1.5 SW 15 19 8 10 1022.2 1022.2 0.0
29/02:30am 11.6 8.7 8.3 80 1.6 SW 13 15 7 8 1022.2 1022.2 0.0
29/02:00am 11.8 8.9 8.3 79 1.7 WSW 13 17 7 9 1022.2 1022.2 0.0
29/01:30am 11.6 8.7 8.3 80 1.6 WSW 13 17 7 9 1022.3 1022.3 0.0
29/01:00am 11.1 8.2 8.0 81 1.5 WSW 13 17 7 9 1022.3 1022.3 0.0
29/12:30am 11.2 8.2 7.9 80 1.6 WSW 13 15 7 8 1022.4 1022.4 0.0
29/12:00am 11.7 9.2 8.2 79 1.7 W 11 15 6 8 1022.6 1022.6 0.0
 
Date/Time
EST
Temp
°C
App
Temp
°C
Dew
Point
°C
Rel
Hum
%
Delta-T
°C
Wind Press
QNH
hPa
Press
MSL
hPa
Rain since
9am
mm
Dir  Spd
km/h
Gust
km/h
Spd
kts
Gust
kts
28/11:30pm 12.0 9.5 8.1 77 1.9 W 11 13 6 7 1022.8 1022.8 0.0
28/11:00pm 12.4 9.5 8.1 75 2.1 WSW 13 15 7 8 1023.0 1023.0 0.0
28/10:30pm 12.9 10.5 8.6 75 2.1 WSW 11 15 6 8 1023.2 1023.2 0.0
28/10:00pm 13.3 11.3 8.8 74 2.3 WSW 9 13 5 7 1023.3 1023.3 0.0
28/09:30pm 13.7 11.4 9.0 73 2.4 WNW 11 13 6 7 1023.4 1023.4 0.0
28/09:00pm 13.8 11.0 8.6 71 2.6 WNW 13 15 7 8 1023.5 1023.5 0.0
28/08:30pm 15.1 13.8 9.2 68 3.0 WNW 6 7 3 4 1023.4 1023.4 0.0
28/08:00pm 15.4 14.1 9.1 66 3.2 NNE 6 7 3 4 1023.5 1023.5 0.0
28/07:30pm 15.6 15.3 8.8 64 3.5 CALM 0 0 0 0 1023.7 1023.7 0.0
28/07:00pm 16.0 15.9 9.4 65 3.4 CALM 0 0 0 0 1023.4 1023.4 0.0
28/06:30pm 16.4 16.5 10.0 66 3.4 CALM 0 0 0 0 1023.0 1023.0 0.0
28/06:00pm 17.2 16.6 7.5 53 4.9 CALM 0 0 0 0 1022.7 1022.7 0.0
28/05:30pm 17.9 16.1 7.0 49 5.4 NNE 6 6 3 3 1022.5 1022.5 0.0
28/05:00pm 18.7 16.7 7.2 47 5.8 NNE 7 7 4 4 1022.3 1022.3 0.0
28/04:30pm 18.9 17.0 6.7 45 6.1 NE 6 7 3 4 1022.2 1022.2 0.0
28/04:00pm 19.3 17.1 6.4 43 6.4 E 7 7 4 4 1021.9 1021.9 0.0
28/03:30pm 19.9 17.8 5.9 40 6.9 E 6 7 3 4 1021.8 1021.8 0.0
28/03:00pm 20.3 17.7 6.3 40 7.0 ENE 9 11 5 6 1021.8 1021.8 0.0
28/02:30pm 20.1 17.6 5.0 37 7.4 ENE 7 9 4 5 1021.8 1021.8 0.0
28/02:00pm 20.4 18.1 5.6 38 7.3 E 7 7 4 4 1021.8 1021.8 0.0
28/01:30pm 21.2 18.9 5.6 36 7.8 SE 7 9 4 5 1022.1 1022.1 0.0
28/01:00pm 21.2 18.5 5.6 36 7.7 SSE 9 9 5 5 1022.3 1022.3 0.0
28/12:30pm 20.7 17.9 5.1 36 7.7 SSE 9 11 5 6 1022.7 1022.7 0.0
28/12:00pm 19.8 16.3 3.5 34 7.7 SSE 11 13 6 7 1023.2 1023.2 0.0
28/11:30am 20.0 16.2 3.7 34 7.7 SSE 13 15 7 8 1023.6 1023.6 0.0
28/11:00am 19.5 15.0 2.4 32 7.9 S 15 19 8 10 1023.9 1023.9 0.0
28/10:30am 19.0 14.5 2.4 33 7.6 SSW 15 20 8 11 1024.2 1024.2 0.0
28/10:00am 18.0 14.0 4.9 42 6.3 SW 15 22 8 12 1024.2 1024.2 0.0
28/09:30am 16.7 12.2 4.4 44 5.8 SW 17 20 9 11 1024.2 1024.2 0.0
28/09:00am 15.4 11.6 5.9 53 4.5 SW 15 22 8 12 1024.1 1024.1 0.0
28/08:30am 13.6 9.4 5.5 58 3.8 WSW 17 22 9 12 1023.9 1023.9 0.0
28/08:00am 12.1 - 4.8 61 3.3 - - - - - 1023.7 1023.7 0.0
28/07:30am 10.5 - 4.4 66 2.7 - - - - - 1023.1 1023.1 0.0
28/07:00am 9.3 - 4.5 72 2.1 - - - - - 1022.8 1022.8 0.0
28/06:30am 8.8 - 4.6 75 1.9 - - - - - 1022.5 1022.5 0.0
28/06:00am 9.2 - 4.4 72 2.1 - - - - - 1022.2 1022.2 0.0
28/05:30am 9.4 - 3.8 68 2.4 - - - - - 1021.9 1021.9 0.0
28/05:00am 8.8 - 3.6 70 2.2 - - - - - 1021.5 1021.5 0.0
28/04:30am 9.9 - 4.1 67 2.6 - - - - - 1021.2 1021.2 0.0
28/04:00am 10.6 - 3.9 63 3.0 - - - - - 1021.3 1021.3 0.0
28/03:30am 10.4 - 3.7 63 2.9 - - - - - 1021.3 1021.3 0.0
28/03:00am 10.7 - 4.0 63 3.0 - - - - - 1021.4 1021.4 0.0
28/02:30am 10.4 7.0 4.1 65 2.8 WSW 11 15 6 8 1021.4 1021.4 0.0
28/02:00am 10.7 6.9 4.0 63 3.0 WSW 13 17 7 9 1021.6 1021.6 0.0
28/01:30am 11.5 7.7 3.8 59 3.4 SW 13 19 7 10 1021.7 1021.7 0.0
28/01:00am 10.9 7.1 3.7 61 3.2 WSW 13 17 7 9 1021.7 1021.7 0.0
28/12:30am 11.9 8.7 2.9 54 3.9 WSW 9 13 5 7 1021.7 1021.7 0.0
28/12:00am 12.6 9.1 3.3 53 4.1 WSW 11 13 6 7 1021.5 1021.5 0.0
 
Date/Time
EST
Temp
°C
App
Temp
°C
Dew
Point
°C
Rel
Hum
%
Delta-T
°C
Wind Press
QNH
hPa
Press
MSL
hPa
Rain since
9am
mm
Dir  Spd
km/h
Gust
km/h
Spd
kts
Gust
kts
27/11:30pm 12.7 9.2 3.6 54 4.1 WSW 11 13 6 7 1021.4 1021.4 0.0
27/11:00pm 12.9 9.4 3.6 53 4.2 WSW 11 17 6 9 1021.2 1021.2 0.0
27/10:30pm 13.3 9.9 3.9 53 4.3 WSW 11 13 6 7 1021.2 1021.2 0.0
27/10:00pm 13.5 10.1 4.1 53 4.3 WSW 11 13 6 7 1021.2 1021.2 0.0
27/09:30pm 14.1 10.7 3.8 50 4.7 SW 11 13 6 7 1020.8 1020.8 0.0
27/09:00pm 14.5 10.8 4.5 51 4.6 WSW 13 19 7 10 1020.7 1020.7 0.0
27/08:30pm 14.1 11.6 6.5 60 3.7 WNW 9 9 5 5 1020.2 1020.2 0.0
27/08:00pm 13.8 11.9 6.7 62 3.4 NW 6 7 3 4 1019.8 1019.8 0.0
27/07:30pm 13.8 11.5 5.7 58 3.8 NW 7 7 4 4 1019.4 1019.4 0.0
27/07:00pm 16.0 13.4 4.1 45 5.5 NNW 7 7 4 4 1018.9 1018.9 0.0
27/06:30pm 15.2 12.8 5.4 52 4.7 NNW 7 7 4 4 1018.5 1018.5 0.0
27/06:00pm 16.2 15.3 6.1 51 4.9 CALM 0 2 0 1 1018.0 1018.0 0.0
27/05:30pm 17.1 15.0 3.8 41 6.2 NNW 4 6 2 3 1017.8 1017.8 0.0
27/05:00pm 17.6 15.3 4.9 43 6.1 NNW 6 7 3 4 1017.4 1017.4 0.0
27/04:30pm 17.7 15.1 4.3 41 6.3 WSW 7 9 4 5 1017.2 1017.2 0.0
27/04:00pm 18.1 14.9 2.8 36 7.0 W 9 13 5 7 1017.0 1017.0 0.0
27/03:30pm 18.4 14.7 2.3 34 7.4 W 11 17 6 9 1016.7 1016.7 0.0
27/03:00pm 18.4 14.6 1.9 33 7.5 W 11 15 6 8 1016.8 1016.8 0.0
27/02:30pm 18.4 13.9 2.3 34 7.4 WSW 15 20 8 11 1017.0 1017.0 0.0
27/02:00pm 18.5 14.1 2.8 35 7.2 WSW 15 20 8 11 1017.2 1017.2 0.0
27/01:30pm 18.6 13.1 1.6 32 7.7 WSW 20 28 11 15 1017.5 1017.5 0.0

Latest Capital City Observations: Canberra | Sydney | Melbourne | Brisbane | Adelaide | Perth | Hobart | Darwin

Other Formats:

Comma delimited format used in spreadsheet applications
http://www.bom.gov.au/fwo/IDQ60901/IDQ60901.95591.axf

JavaScript Object Notation format (JSON) in row-major order
http://www.bom.gov.au/fwo/IDQ60901/IDQ60901.95591.json